Time;durP1;ratioP1;P1;durP2;ratioP2;P2;SDS_P1;SDS_P2;PMS_P1;PMS_P2;Temp;Humidity;BMP_temperature;BMP_pressure;BME280_temperature;BME280_humidity;BME280_pressure;Samples;Min_cycle;Max_cycle;Signal;HPM_P1;HPM_P2
2023/03/19 00:09:18;;;;;;;1034.82;950.97;;;;;;;21.87;44.29;100729.56;20500207;28;20043;-71
2023/03/19 00:19:19;;;;;;;1168.55;999.90;;;;;;;21.86;44.10;100729.66;20495909;28;20058;-71
2023/03/19 00:29:20;;;;;;;1116.13;999.90;;;;;;;21.83;43.94;100717.56;20502067;28;20464;-71
2023/03/19 00:39:20;;;;;;;819.80;749.08;;;;;;;21.82;44.15;100707.97;20482668;28;20113;-72
2023/03/19 00:49:21;;;;;;;1135.95;999.90;;;;;;;21.79;43.84;100702.94;20471929;28;20086;-71
2023/03/19 00:59:27;;;;;;;1134.88;999.90;;;;;;;21.78;44.06;100700.41;20490971;28;20137;-71
2023/03/19 01:09:28;;;;;;;858.22;785.72;;;;;;;21.72;44.01;100693.81;20488845;28;20042;-72
2023/03/19 01:19:28;;;;;;;652.83;594.60;;;;;;;21.72;43.94;100706.97;20500198;28;21359;-71
2023/03/19 01:29:29;;;;;;;582.45;529.42;;;;;;;21.70;44.22;100707.09;20506600;28;22324;-71
2023/03/19 01:39:30;;;;;;;562.00;510.35;;;;;;;21.68;44.45;100703.72;20499911;28;20049;-71
2023/03/19 01:49:30;;;;;;;568.55;516.35;;;;;;;21.67;44.46;100703.84;20493537;28;20043;-71
2023/03/19 01:59:35;;;;;;;561.93;510.33;;;;;;;21.64;44.18;100707.56;20496585;28;20047;-70
2023/03/19 02:09:36;;;;;;;561.05;509.38;;;;;;;21.62;44.97;100700.69;20500562;28;20285;-71
2023/03/19 02:19:47;;;;;;;572.03;519.63;;;;;;;21.61;44.35;100699.88;20502366;28;20101;-71
2023/03/19 02:29:49;;;;;;;544.50;494.02;;;;;;;21.65;44.91;100701.31;20489593;28;20065;-71
2023/03/19 02:39:59;;;;;;;548.97;498.17;;;;;;;21.63;44.67;100690.06;20501085;28;21507;-72
2023/03/19 02:49:59;;;;;;;545.90;495.40;;;;;;;21.56;44.48;100696.72;20492220;28;20293;-72
2023/03/19 03:00:00;;;;;;;542.80;492.58;;;;;;;21.55;44.58;100684.50;20497080;28;20112;-71
2023/03/19 03:10:01;;;;;;;544.67;494.40;;;;;;;21.53;44.64;100687.25;20508076;28;20043;-70
2023/03/19 03:20:05;;;;;;;534.88;485.08;;;;;;;21.53;44.78;100691.66;20510372;28;20050;-71
2023/03/19 03:30:07;;;;;;;528.42;479.20;;;;;;;21.49;44.49;100690.22;20512047;28;20062;-72
2023/03/19 03:40:08;;;;;;;507.63;459.77;;;;;;;21.46;45.03;100688.66;20510725;28;20050;-71
2023/03/19 03:50:12;;;;;;;467.50;422.48;;;;;;;21.48;44.77;100692.00;20511022;28;20047;-70
2023/03/19 04:00:13;;;;;;;465.98;421.08;;;;;;;21.43;44.74;100689.72;20511944;28;20054;-72
2023/03/19 04:10:14;;;;;;;465.60;420.60;;;;;;;21.43;44.83;100695.00;20497989;28;20716;-72
2023/03/19 04:20:16;;;;;;;487.52;441.25;;;;;;;21.44;44.55;100694.00;20506419;28;20332;-71
2023/03/19 04:30:17;;;;;;;464.30;419.42;;;;;;;21.45;44.91;100686.97;20503933;28;20406;-71
2023/03/19 04:40:18;;;;;;;473.90;428.45;;;;;;;21.48;44.73;100667.44;20502979;28;20144;-71
2023/03/19 04:50:18;;;;;;;472.98;427.67;;;;;;;21.48;44.92;100676.19;20507038;28;20054;-70
2023/03/19 05:00:20;;;;;;;450.00;406.40;;;;;;;21.51;45.00;100689.16;20498604;28;20066;-71
2023/03/19 05:10:20;;;;;;;476.45;430.85;;;;;;;21.54;44.68;100696.81;20501044;28;20139;-71
2023/03/19 05:20:22;;;;;;;476.67;430.88;;;;;;;21.55;44.04;100700.28;20496111;28;20051;-71
2023/03/19 05:30:22;;;;;;;465.20;420.33;;;;;;;21.63;44.12;100705.03;20491749;28;20058;-69
2023/03/19 05:40:24;;;;;;;467.90;422.83;;;;;;;21.69;44.16;100715.09;20493982;28;20047;-70
2023/03/19 05:50:25;;;;;;;474.83;429.25;;;;;;;21.72;43.54;100722.78;20498825;28;20750;-71
2023/03/19 06:00:26;;;;;;;460.17;415.48;;;;;;;21.74;44.09;100724.34;20501276;28;20050;-71
2023/03/19 06:10:27;;;;;;;471.20;425.67;;;;;;;21.79;43.78;100728.44;20499000;28;20043;-71
2023/03/19 06:20:27;;;;;;;455.98;411.52;;;;;;;21.83;44.47;100735.19;20494774;28;20902;-68
2023/03/19 06:30:28;;;;;;;491.27;444.40;;;;;;;21.87;44.25;100732.19;20495456;28;20050;-68
2023/03/19 06:40:29;;;;;;;450.90;406.88;;;;;;;21.90;44.29;100746.94;20509674;28;20058;-69
2023/03/19 06:50:29;;;;;;;429.83;387.58;;;;;;;21.93;44.16;100754.59;20507256;28;20060;-68
2023/03/19 07:00:30;;;;;;;447.10;403.30;;;;;;;21.95;43.85;100757.13;20509622;28;20055;-69
2023/03/19 07:10:30;;;;;;;422.42;381.00;;;;;;;21.97;43.40;100744.69;20510288;28;20053;-69
2023/03/19 07:20:31;;;;;;;378.10;341.40;;;;;;;22.05;43.84;100737.03;20509332;28;20577;-70
2023/03/19 07:30:32;;;;;;;424.27;382.40;;;;;;;22.16;45.34;100730.94;20502932;28;20047;-70
2023/03/19 07:40:32;;;;;;;527.15;476.88;;;;;;;22.25;48.53;100737.31;20498226;28;20403;-70
2023/03/19 07:50:33;;;;;;;435.48;391.92;;;;;;;22.29;48.60;100736.09;20491659;28;20150;-70
2023/03/19 08:00:33;;;;;;;890.70;813.97;;;;;;;22.22;45.86;100726.03;20493992;28;20057;-70
2023/03/19 08:10:33;;;;;;;1138.47;999.90;;;;;;;21.23;31.75;100732.47;20508581;28;20046;-70
2023/03/19 08:20:34;;;;;;;914.22;837.90;;;;;;;21.91;41.55;100715.19;20497577;28;20060;-69
2023/03/19 08:30:36;;;;;;;900.83;825.53;;;;;;;21.95;40.44;100717.56;20496935;28;20061;-70
2023/03/19 08:40:36;;;;;;;940.42;862.83;;;;;;;21.99;41.36;100725.16;20504535;28;20292;-70
2023/03/19 08:50:37;;;;;;;936.47;859.00;;;;;;;22.02;42.24;100724.94;20495595;28;20039;-70
2023/03/19 09:00:37;;;;;;;975.70;895.50;;;;;;;22.03;42.47;100716.06;20499115;28;20054;-69
2023/03/19 09:10:38;;;;;;;1006.58;925.00;;;;;;;22.06;42.37;100709.72;20491875;28;20031;-71
2023/03/19 09:20:39;;;;;;;1040.63;957.30;;;;;;;22.11;42.35;100704.09;20503978;28;20063;-71
2023/03/19 09:30:39;;;;;;;1017.33;934.97;;;;;;;22.14;42.78;100701.22;20499468;28;20054;-70
2023/03/19 09:40:46;;;;;;;1000.10;918.63;;;;;;;22.18;42.83;100689.44;20486226;28;20061;-71
2023/03/19 09:50:48;;;;;;;984.67;903.90;;;;;;;22.22;42.62;100690.91;20497023;28;20053;-72
2023/03/19 10:00:51;;;;;;;978.20;897.60;;;;;;;22.26;42.66;100681.78;20511639;28;20109;-70
2023/03/19 10:11:02;;;;;;;;;;;;;;;22.32;42.95;100675.22;20511930;28;20049;-70
2023/03/19 10:21:26;;;;;;;971.00;890.80;;;;;;;22.38;43.12;100669.47;20519884;28;19930;-69
2023/03/19 10:31:41;;;;;;;987.42;906.10;;;;;;;22.42;42.97;100659.53;20513843;28;20062;-68
2023/03/19 10:41:59;;;;;;;968.58;888.42;;;;;;;22.46;43.13;100645.97;20511828;28;20058;-68
2023/03/19 10:52:00;;;;;;;1027.25;943.80;;;;;;;22.55;43.09;100632.03;20527150;28;20045;-68
2023/03/19 11:02:14;;;;;;;984.45;902.75;;;;;;;22.61;43.23;100620.16;20514731;28;20051;-69
2023/03/19 11:12:27;;;;;;;1190.45;999.90;;;;;;;22.68;42.79;100602.88;20510368;28;20138;-68
2023/03/19 11:22:32;;;;;;;233.05;210.85;;;;;;;22.77;42.90;100582.00;20495703;28;20042;-69
2023/03/19 11:32:58;;;;;;;332.00;299.20;;;;;;;22.86;42.95;100568.03;20514546;28;20051;-70
2023/03/19 11:43:37;;;;;;;393.27;354.33;;;;;;;22.95;42.72;100547.94;20503716;28;20515;-68
2023/03/19 11:53:47;;;;;;;394.08;354.63;;;;;;;23.05;43.16;100534.84;20510288;28;20039;-71
2023/03/19 12:03:57;;;;;;;377.65;339.85;;;;;;;23.14;42.88;100524.34;20510121;28;20051;-68
2023/03/19 12:14:07;;;;;;;376.90;339.52;;;;;;;23.22;42.87;100505.22;20507402;28;20047;-69
2023/03/19 12:24:32;;;;;;;295.83;266.58;;;;;;;23.28;42.74;100493.31;20509870;28;20047;-70
2023/03/19 12:34:43;;;;;;;304.20;274.05;;;;;;;23.34;42.44;100483.03;20510424;28;20061;-71
2023/03/19 12:44:49;;;;;;;327.70;294.83;;;;;;;23.43;42.52;100470.84;20509622;28;20046;-68
2023/03/19 12:54:58;;;;;;;319.75;287.90;;;;;;;23.49;42.11;100456.28;20510386;28;20047;-68
2023/03/19 13:05:07;;;;;;;318.30;286.25;;;;;;;23.54;42.11;100437.38;20505998;28;20047;-68
2023/03/19 13:15:22;;;;;;;356.35;320.55;;;;;;;23.59;41.74;100421.97;20504832;28;20044;-70
2023/03/19 13:25:34;;;;;;;368.48;331.30;;;;;;;23.65;41.78;100409.03;20509999;28;20047;-70
2023/03/19 13:35:39;;;;;;;310.35;279.25;;;;;;;23.60;41.51;100405.13;20512758;28;20044;-74
2023/03/19 13:45:40;;;;;;;299.95;269.95;;;;;;;23.57;40.85;100397.47;20514899;28;20129;-75
2023/03/19 13:55:50;;;;;;;325.83;293.10;;;;;;;23.51;40.58;100369.78;20530493;28;20466;-73
2023/03/19 14:05:55;;;;;;;297.23;267.60;;;;;;;23.38;39.48;100367.38;20513910;28;20047;-75
2023/03/19 14:16:03;;;;;;;308.67;277.23;;;;;;;23.41;40.19;100361.81;20507888;28;20133;-75
2023/03/19 14:26:11;;;;;;;468.52;422.23;;;;;;;22.98;29.00;100376.06;20516782;28;20115;-72
2023/03/19 14:36:16;;;;;;;486.88;439.38;;;;;;;22.58;25.74;100358.31;20517823;28;20061;-73
2023/03/19 14:46:26;;;;;;;1097.45;996.30;;;;;;;22.45;25.40;100355.84;20500459;28;20805;-74
2023/03/19 14:56:32;;;;;;;626.50;569.13;;;;;;;22.79;29.94;100356.50;20520165;28;20105;-73
2023/03/19 15:06:36;;;;;;;514.13;464.50;;;;;;;23.07;33.79;100355.94;20513201;28;20070;-71
2023/03/19 15:17:01;;;;;;;519.47;469.33;;;;;;;23.21;35.26;100352.16;20491743;28;20086;-71
2023/03/19 15:27:12;;;;;;;429.60;385.90;;;;;;;23.31;35.67;100356.50;20516939;28;20050;-70
2023/03/19 15:37:14;;;;;;;753.07;685.87;;;;;;;23.29;36.77;100363.72;20500113;28;20069;-71
2023/03/19 15:47:23;;;;;;;694.65;631.45;;;;;;;23.35;37.15;100354.41;20526153;28;20035;-77
2023/03/19 15:57:25;;;;;;;697.78;634.65;;;;;;;23.36;39.79;100371.13;20533016;28;20181;-76
2023/03/19 16:07:29;;;;;;;692.33;629.70;;;;;;;23.32;40.60;100370.53;20529942;28;20038;-74
2023/03/19 16:17:34;;;;;;;725.30;660.03;;;;;;;23.31;40.92;100382.06;20523544;28;21171;-74
2023/03/19 16:27:38;;;;;;;599.20;543.28;;;;;;;23.32;41.40;100379.28;20539347;28;20078;-76
2023/03/19 16:37:41;;;;;;;593.50;537.70;;;;;;;23.30;42.12;100378.59;20520511;28;20171;-73
2023/03/19 16:47:44;;;;;;;644.22;585.17;;;;;;;23.32;42.04;100396.97;20541470;28;20074;-72
2023/03/19 16:57:56;;;;;;;692.45;629.90;;;;;;;23.33;42.72;100412.66;20529436;28;20047;-74
2023/03/19 17:07:56;;;;;;;701.55;638.05;;;;;;;23.32;43.16;100408.34;20535845;28;20050;-73
2023/03/19 17:18:01;;;;;;;685.60;623.60;;;;;;;23.30;43.30;100417.38;20518080;28;20077;-73
2023/03/19 17:28:02;;;;;;;685.33;623.17;;;;;;;23.31;43.64;100421.69;20529770;28;20285;-73
2023/03/19 17:38:03;;;;;;;638.17;579.47;;;;;;;23.31;44.06;100417.28;20538549;28;20442;-74
2023/03/19 17:48:04;;;;;;;663.97;603.50;;;;;;;23.33;44.44;100425.88;20542242;28;20043;-73
2023/03/19 17:58:15;;;;;;;641.42;582.40;;;;;;;23.25;44.27;100425.69;20522520;28;20081;-73
2023/03/19 18:08:19;;;;;;;676.15;614.83;;;;;;;23.27;44.51;100426.41;20525151;28;20274;-73
2023/03/19 18:18:29;;;;;;;659.97;599.40;;;;;;;23.25;44.82;100412.50;20529752;28;20053;-72
2023/03/19 18:28:31;;;;;;;747.80;681.15;;;;;;;23.25;44.58;100422.22;20524942;28;20070;-71
2023/03/19 18:38:32;;;;;;;760.00;692.03;;;;;;;23.25;44.84;100414.31;20519070;28;20043;-74
2023/03/19 18:48:33;;;;;;;783.40;714.13;;;;;;;23.22;44.43;100415.41;20531098;28;20050;-73
2023/03/19 18:58:35;;;;;;;778.08;709.20;;;;;;;23.23;44.95;100422.38;20518598;28;20053;-73
2023/03/19 19:08:36;;;;;;;770.47;702.42;;;;;;;23.25;46.49;100420.41;20528415;28;20050;-73
2023/03/19 19:18:37;;;;;;;804.53;732.72;;;;;;;23.30;49.51;100430.59;20539058;28;20053;-73
2023/03/19 19:28:38;;;;;;;1004.97;919.83;;;;;;;23.33;51.83;100430.34;20527123;28;20130;-72
2023/03/19 19:38:40;;;;;;;1133.00;999.90;;;;;;;23.35;53.57;100444.25;20523240;28;20046;-71
2023/03/19 19:48:41;;;;;;;861.63;787.53;;;;;;;23.36;55.57;100442.44;20528875;28;20051;-72
2023/03/19 19:58:44;;;;;;;993.30;909.13;;;;;;;23.38;56.91;100443.16;20529471;28;20062;-73
2023/03/19 20:08:50;;;;;;;632.38;574.25;;;;;;;23.22;45.73;100444.47;20518356;28;20058;-69
2023/03/19 20:18:53;;;;;;;674.30;612.75;;;;;;;23.11;43.89;100439.25;20512744;28;20061;-72
2023/03/19 20:28:54;;;;;;;943.03;861.97;;;;;;;23.00;42.80;100438.31;20516806;28;20070;-71
2023/03/19 20:38:56;;;;;;;899.58;820.85;;;;;;;22.99;47.01;100435.81;20490798;28;20059;-71
2023/03/19 20:49:00;;;;;;;825.65;752.38;;;;;;;22.98;47.91;100442.91;20510707;28;20035;-72
2023/03/19 20:59:01;;;;;;;807.25;735.90;;;;;;;22.97;49.08;100435.09;20510829;28;20097;-70
2023/03/19 21:09:03;;;;;;;808.22;736.75;;;;;;;22.93;49.31;100428.44;20515850;28;21284;-70
2023/03/19 21:19:05;;;;;;;786.90;717.13;;;;;;;22.94;49.17;100432.75;20516604;28;20051;-71
2023/03/19 21:29:12;;;;;;;777.83;708.83;;;;;;;22.88;49.59;100431.44;20492410;28;20054;-71
2023/03/19 21:39:13;;;;;;;792.97;723.17;;;;;;;22.88;49.36;100433.25;20511127;28;20124;-70
2023/03/19 21:49:14;;;;;;;780.47;711.67;;;;;;;22.73;49.40;100423.00;20501719;28;20047;-70
2023/03/19 21:59:22;;;;;;;786.90;717.55;;;;;;;22.70;49.04;100425.91;20512788;28;20043;-70
2023/03/19 22:09:22;;;;;;;786.15;716.95;;;;;;;22.65;49.56;100410.44;20519166;28;20051;-71
2023/03/19 22:19:24;;;;;;;777.30;708.83;;;;;;;22.61;49.13;100406.38;20523222;28;20043;-71
2023/03/19 22:29:25;;;;;;;746.63;680.47;;;;;;;22.58;49.36;100401.34;20526153;28;20102;-71
2023/03/19 22:39:25;;;;;;;744.75;678.65;;;;;;;22.54;49.16;100387.59;20523893;28;20482;-70
2023/03/19 22:49:27;;;;;;;712.38;648.72;;;;;;;22.52;49.46;100394.81;20531674;28;20122;-71
2023/03/19 22:59:28;;;;;;;751.10;684.85;;;;;;;22.49;49.18;100389.78;20522560;28;20410;-71
2023/03/19 23:09:34;;;;;;;712.47;649.03;;;;;;;22.47;49.09;100389.09;20525537;28;20070;-71
2023/03/19 23:19:36;;;;;;;695.15;633.05;;;;;;;22.45;49.21;100374.31;20524662;28;20046;-71
2023/03/19 23:29:42;;;;;;;701.85;639.30;;;;;;;22.45;49.21;100377.81;20522875;28;20039;-72
2023/03/19 23:39:42;;;;;;;680.22;619.28;;;;;;;22.41;48.91;100371.13;20525938;28;20053;-72
2023/03/19 23:49:43;;;;;;;669.72;609.83;;;;;;;22.36;49.09;100366.19;20520929;28;20047;-72
2023/03/19 23:59:52;;;;;;;662.47;602.88;;;;;;;22.35;48.58;100363.66;20511384;28;20058;-72
